Flight Track Log - Related Links

Times and Time Zones

All times are in EDT time to prevent confusion due to time zone crossing. See the N724AE flight status page for this flight to view local times or setup timezone preferences in your user account.

Time Position Orientation Groundspeed Altitude Reporting Facility
EDT Latitude Longitude Course Direction KTS MPH feet Rate Location/Type
Sat 02:40:08 PM 33.4836 -93.9792 294° West 434 499 2,100  Level Fort Worth Center
Sat 02:41:08 PM 33.5086 -94.0503 293° West 268 308 5,200 3,500 Climbing Fort Worth Center
Sat 02:42:00 PM 33.5447 -94.2341 292° West  Level FlightAware Approximate
Sat 02:42:08 PM 33.5086 -94.1350 270° West 211 243 9,100  Level Fort Worth Center
Sat 02:43:00 PM 33.5716 -94.3206 296° West  Level FlightAware Approximate
Sat 02:43:08 PM 33.5111 -94.2319 272° West 233 268 10,800  Level Fort Worth Center
Sat 02:44:00 PM 33.6053 -94.4050 296° West  Level FlightAware Approximate
Sat 02:44:08 PM 33.5100 -94.3517 269° West 307 353 12,500  Level Fort Worth Center
Sat 02:45:00 PM 33.6374 -94.4903 294° West  Level FlightAware Approximate
Sat 02:45:08 PM 33.5131 -94.4736 272° West 348 400 15,000  Level Fort Worth Center
Sat 02:46:08 PM 33.5156 -94.5881 272° West 355 409 17,900 2,100 Climbing Fort Worth Center
Sat 02:47:08 PM 33.5181 -94.7078 271° West 355 409 19,200 1,050 Climbing Fort Worth Center
Sat 02:48:08 PM 33.5186 -94.8322 270° West 368 423 20,000 400 Climbing Fort Worth Center
Sat 02:49:08 PM 33.5214 -94.9667 271° West 383 441 20,000  Level Fort Worth Center
Sat 02:50:08 PM 33.5217 -95.0961 270° West 395 455 20,000  Level Fort Worth Center
Sat 02:51:08 PM 33.5264 -95.2308 272° West 395 455 20,000  Level Fort Worth Center
Sat 02:52:08 PM 33.5139 -95.3606 263° West 403 464 20,000  Level Fort Worth Center
Sat 02:53:08 PM 33.4950 -95.4906 260° West 403 464 20,000  Level Fort Worth Center
Sat 02:54:08 PM 33.4783 -95.6303 262° West 403 464 20,000 -467 Level Fort Worth Center
Sat 02:56:08 PM 33.4400 -95.8850 260° West 388 447 18,600 -1,233 Descending Fort Worth Center
Sat 02:57:08 PM 33.4244 -95.9997 261° West 372 428 16,300 -2,400 Descending Fort Worth Center
Sat 02:58:08 PM 33.4069 -96.1119 259° West 353 406 13,800 -2,500 Descending Fort Worth Center
Sat 02:59:08 PM 33.3933 -96.2167 261° West 334 384 11,300 -1,400 Descending Fort Worth Center
Sat 03:00:08 PM 33.3778 -96.3264 260° West 334 384 11,000 -250 Descending Fort Worth Center
Sat 03:01:08 PM 33.3514 -96.4186 251° West 315 362 10,800 -600 Descending Fort Worth Center
Sat 03:02:08 PM 33.3122 -96.5036 241° Southwest 293 337 9,800 -1,050 Descending Fort Worth Center
Sat 03:03:08 PM 33.2689 -96.5836 237° Southwest 293 337 8,700 -1,150 Descending Fort Worth Center
Sat 03:04:08 PM 33.2297 -96.6608 239° Southwest 288 331 7,500 -1,050 Descending Fort Worth Center
Sat 03:05:08 PM 33.1906 -96.7358 238° Southwest 282 325 6,600 -969 Descending Fort Worth Center
Sat 03:07:20 PM 33.1167 -96.8833 239° Southwest 258 297 4,400 -1,000 Descending Dallas / Fort Worth TRACON
Sat 03:08:20 PM 33.0667 -96.9500 228° Southwest 235 270 3,400 -1,000 Descending Dallas / Fort Worth TRACON

Login

Don't have an account? Register now (free) for customized features, flight alerts, and more!